sensor_id;sensor_type;location;lat;lon;timestamp;pressure;altitude;pressure_sealevel;temperature;humidity
37634;BME280;32048;49.902;22.508;2022-09-13T00:01:26;98532.53;;;10.94;100.00
37634;BME280;32048;49.902;22.508;2022-09-13T00:03:53;98536.00;;;10.95;100.00
37634;BME280;32048;49.902;22.508;2022-09-13T00:06:21;98537.69;;;10.96;100.00
37634;BME280;32048;49.902;22.508;2022-09-13T00:08:48;98539.50;;;10.95;100.00
37634;BME280;32048;49.902;22.508;2022-09-13T00:11:18;98539.69;;;10.92;100.00
37634;BME280;32048;49.902;22.508;2022-09-13T00:13:47;98531.81;;;10.91;100.00
37634;BME280;32048;49.902;22.508;2022-09-13T00:16:17;98537.03;;;10.92;100.00
37634;BME280;32048;49.902;22.508;2022-09-13T00:18:44;98535.75;;;10.84;100.00
37634;BME280;32048;49.902;22.508;2022-09-13T00:21:14;98532.09;;;10.86;100.00
37634;BME280;32048;49.902;22.508;2022-09-13T00:23:43;98532.09;;;10.86;100.00
37634;BME280;32048;49.902;22.508;2022-09-13T00:26:13;98533.69;;;10.89;100.00
37634;BME280;32048;49.902;22.508;2022-09-13T00:28:41;98532.84;;;10.88;100.00
37634;BME280;32048;49.902;22.508;2022-09-13T00:31:08;98531.31;;;10.84;100.00
37634;BME280;32048;49.902;22.508;2022-09-13T00:33:36;98533.88;;;10.86;100.00
37634;BME280;32048;49.902;22.508;2022-09-13T00:36:08;98533.97;;;10.84;100.00
37634;BME280;32048;49.902;22.508;2022-09-13T00:38:39;98534.91;;;10.83;100.00
37634;BME280;32048;49.902;22.508;2022-09-13T00:41:10;98534.03;;;10.82;100.00
37634;BME280;32048;49.902;22.508;2022-09-13T00:43:53;98531.31;;;10.84;100.00
37634;BME280;32048;49.902;22.508;2022-09-13T00:46:33;98527.06;;;10.81;100.00
37634;BME280;32048;49.902;22.508;2022-09-13T00:49:13;98526.88;;;10.85;100.00
37634;BME280;32048;49.902;22.508;2022-09-13T00:51:50;98530.47;;;10.84;100.00
37634;BME280;32048;49.902;22.508;2022-09-13T00:54:21;98532.16;;;10.85;100.00
37634;BME280;32048;49.902;22.508;2022-09-13T00:56:52;98532.16;;;10.85;100.00
37634;BME280;32048;49.902;22.508;2022-09-13T00:59:29;98528.59;;;10.86;100.00
37634;BME280;32048;49.902;22.508;2022-09-13T01:02:00;98530.28;;;10.87;100.00
37634;BME280;32048;49.902;22.508;2022-09-13T01:04:29;98526.72;;;10.88;100.00
37634;BME280;32048;49.902;22.508;2022-09-13T01:07:01;98522.28;;;10.88;100.00
37634;BME280;32048;49.902;22.508;2022-09-13T01:09:31;98526.53;;;10.91;100.00
37634;BME280;32048;49.902;22.508;2022-09-13T01:12:02;98541.44;;;10.92;100.00
37634;BME280;32048;49.902;22.508;2022-09-13T01:14:34;98542.31;;;10.92;100.00
37634;BME280;32048;49.902;22.508;2022-09-13T01:17:03;98547.59;;;10.92;100.00
37634;BME280;32048;49.902;22.508;2022-09-13T01:19:30;98545.81;;;10.93;100.00
37634;BME280;32048;49.902;22.508;2022-09-13T01:25:24;98551.00;;;10.94;100.00
37634;BME280;32048;49.902;22.508;2022-09-13T01:28:21;98549.97;;;10.97;100.00
37634;BME280;32048;49.902;22.508;2022-09-13T01:34:15;98558.50;;;11.02;100.00
37634;BME280;32048;49.902;22.508;2022-09-13T01:39:53;98554.88;;;11.03;100.00
37634;BME280;32048;49.902;22.508;2022-09-13T01:45:26;98553.91;;;11.06;100.00
37634;BME280;32048;49.902;22.508;2022-09-13T01:53:10;98539.31;;;10.98;100.00
37634;BME280;32048;49.902;22.508;2022-09-13T01:55:57;98520.91;;;10.97;100.00
37634;BME280;32048;49.902;22.508;2022-09-13T02:06:21;98510.88;;;10.88;100.00
37634;BME280;32048;49.902;22.508;2022-09-13T02:08:59;98521.34;;;10.89;100.00
37634;BME280;32048;49.902;22.508;2022-09-13T02:11:28;98521.44;;;10.88;100.00
37634;BME280;32048;49.902;22.508;2022-09-13T02:14:18;98525.00;;;10.87;100.00
37634;BME280;32048;49.902;22.508;2022-09-13T02:16:58;98518.88;;;10.86;100.00
37634;BME280;32048;49.902;22.508;2022-09-13T02:19:35;98521.59;;;10.85;100.00
37634;BME280;32048;49.902;22.508;2022-09-13T02:22:05;98518.31;;;10.81;100.00
37634;BME280;32048;49.902;22.508;2022-09-13T02:24:45;98521.22;;;10.76;100.00
37634;BME280;32048;49.902;22.508;2022-09-13T02:27:18;98515.91;;;10.76;100.00
37634;BME280;32048;49.902;22.508;2022-09-13T02:29:49;98521.34;;;10.73;100.00
37634;BME280;32048;49.902;22.508;2022-09-13T02:32:36;98520.44;;;10.74;100.00
37634;BME280;32048;49.902;22.508;2022-09-13T02:35:15;98521.47;;;10.72;100.00
37634;BME280;32048;49.902;22.508;2022-09-13T02:37:50;98517.09;;;10.71;100.00
37634;BME280;32048;49.902;22.508;2022-09-13T02:43:33;98520.84;;;10.67;100.00
37634;BME280;32048;49.902;22.508;2022-09-13T02:49:10;98514.03;;;10.63;100.00
37634;BME280;32048;49.902;22.508;2022-09-13T02:51:48;98514.97;;;10.61;100.00
37634;BME280;32048;49.902;22.508;2022-09-13T02:54:41;98512.34;;;10.61;100.00
37634;BME280;32048;49.902;22.508;2022-09-13T02:59:47;98512.53;;;10.58;100.00
37634;BME280;32048;49.902;22.508;2022-09-13T03:02:17;98517.03;;;10.56;100.00
37634;BME280;32048;49.902;22.508;2022-09-13T03:04:45;98511.00;;;10.54;100.00
37634;BME280;32048;49.902;22.508;2022-09-13T03:07:13;98505.84;;;10.51;100.00
37634;BME280;32048;49.902;22.508;2022-09-13T03:10:04;98509.78;;;10.44;100.00
37634;BME280;32048;49.902;22.508;2022-09-13T03:12:54;98503.72;;;10.42;100.00
37634;BME280;32048;49.902;22.508;2022-09-13T03:30:06;98501.63;;;10.15;100.00
37634;BME280;32048;49.902;22.508;2022-09-13T03:32:43;98498.34;;;10.12;100.00
37634;BME280;32048;49.902;22.508;2022-09-13T03:38:04;98496.53;;;10.12;100.00
37634;BME280;32048;49.902;22.508;2022-09-13T03:43:37;98489.47;;;10.13;100.00
37634;BME280;32048;49.902;22.508;2022-09-13T03:46:20;98491.25;;;10.12;100.00
37634;BME280;32048;49.902;22.508;2022-09-13T03:48:49;98499.09;;;10.14;100.00
37634;BME280;32048;49.902;22.508;2022-09-13T03:51:17;98494.75;;;10.13;100.00
37634;BME280;32048;49.902;22.508;2022-09-13T03:53:53;98494.75;;;10.13;100.00
37634;BME280;32048;49.902;22.508;2022-09-13T03:56:22;98493.72;;;10.15;100.00
37634;BME280;32048;49.902;22.508;2022-09-13T03:58:49;98495.50;;;10.15;100.00
37634;BME280;32048;49.902;22.508;2022-09-13T04:01:19;98491.09;;;10.15;100.00
37634;BME280;32048;49.902;22.508;2022-09-13T04:03:48;98488.44;;;10.15;100.00
37634;BME280;32048;49.902;22.508;2022-09-13T04:06:21;98489.31;;;10.16;100.00
37634;BME280;32048;49.902;22.508;2022-09-13T04:08:48;98490.09;;;10.18;100.00
37634;BME280;32048;49.902;22.508;2022-09-13T04:11:15;98488.31;;;10.18;100.00
37634;BME280;32048;49.902;22.508;2022-09-13T04:13:42;98490.75;;;10.22;100.00
37634;BME280;32048;49.902;22.508;2022-09-13T04:16:09;98495.13;;;10.23;100.00
37634;BME280;32048;49.902;22.508;2022-09-13T04:18:36;98488.97;;;10.22;100.00
37634;BME280;32048;49.902;22.508;2022-09-13T04:21:03;98490.69;;;10.23;100.00
37634;BME280;32048;49.902;22.508;2022-09-13T04:23:30;98494.00;;;10.27;100.00
37634;BME280;32048;49.902;22.508;2022-09-13T04:26:03;98497.50;;;10.27;100.00
37634;BME280;32048;49.902;22.508;2022-09-13T04:28:30;98498.19;;;10.31;100.00
37634;BME280;32048;49.902;22.508;2022-09-13T04:30:57;98489.09;;;10.36;100.00
37634;BME280;32048;49.902;22.508;2022-09-13T04:33:24;98489.88;;;10.38;100.00
37634;BME280;32048;49.902;22.508;2022-09-13T04:35:58;98483.31;;;10.46;100.00
37634;BME280;32048;49.902;22.508;2022-09-13T04:38:25;98487.03;;;10.57;100.00
37634;BME280;32048;49.902;22.508;2022-09-13T04:40:54;98481.50;;;10.62;100.00
37634;BME280;32048;49.902;22.508;2022-09-13T04:43:22;98482.28;;;10.64;100.00
37634;BME280;32048;49.902;22.508;2022-09-13T04:45:49;98485.75;;;10.65;100.00
37634;BME280;32048;49.902;22.508;2022-09-13T04:48:16;98492.84;;;10.64;100.00
37634;BME280;32048;49.902;22.508;2022-09-13T04:50:43;98491.16;;;10.63;100.00
37634;BME280;32048;49.902;22.508;2022-09-13T04:53:10;98484.06;;;10.64;100.00
37634;BME280;32048;49.902;22.508;2022-09-13T04:55:37;98480.47;;;10.65;100.00
37634;BME280;32048;49.902;22.508;2022-09-13T04:58:04;98483.22;;;10.63;100.00
37634;BME280;32048;49.902;22.508;2022-09-13T05:00:32;98487.63;;;10.63;100.00
37634;BME280;32048;49.902;22.508;2022-09-13T05:02:59;98498.03;;;10.66;100.00
37634;BME280;32048;49.902;22.508;2022-09-13T05:05:26;98485.91;;;10.77;100.00
37634;BME280;32048;49.902;22.508;2022-09-13T05:07:54;98488.16;;;11.30;100.00
37634;BME280;32048;49.902;22.508;2022-09-13T05:10:21;98489.41;;;11.97;100.00
37634;BME280;32048;49.902;22.508;2022-09-13T05:12:48;98496.88;;;12.61;100.00
37634;BME280;32048;49.902;22.508;2022-09-13T05:15:15;98492.38;;;13.30;100.00
37634;BME280;32048;49.902;22.508;2022-09-13T05:17:42;98484.00;;;14.00;100.00
37634;BME280;32048;49.902;22.508;2022-09-13T05:20:09;98494.72;;;14.61;100.00
37634;BME280;32048;49.902;22.508;2022-09-13T05:22:36;98492.63;;;15.26;100.00
37634;BME280;32048;49.902;22.508;2022-09-13T05:25:04;98503.31;;;15.72;100.00
37634;BME280;32048;49.902;22.508;2022-09-13T05:27:30;98486.72;;;16.03;98.55
37634;BME280;32048;49.902;22.508;2022-09-13T05:29:57;98487.69;;;16.35;98.12
37634;BME280;32048;49.902;22.508;2022-09-13T05:32:24;98490.19;;;16.71;93.70
37634;BME280;32048;49.902;22.508;2022-09-13T05:34:51;98479.25;;;17.17;91.53
37634;BME280;32048;49.902;22.508;2022-09-13T05:37:18;98472.91;;;17.51;87.71
37634;BME280;32048;49.902;22.508;2022-09-13T05:39:45;98474.28;;;17.87;85.18
37634;BME280;32048;49.902;22.508;2022-09-13T05:42:32;98467.75;;;18.01;83.74
37634;BME280;32048;49.902;22.508;2022-09-13T05:44:59;98480.41;;;18.49;81.24
37634;BME280;32048;49.902;22.508;2022-09-13T05:47:26;98480.25;;;18.91;78.73
37634;BME280;32048;49.902;22.508;2022-09-13T05:49:53;98471.25;;;19.31;76.44
37634;BME280;32048;49.902;22.508;2022-09-13T05:52:36;98478.41;;;19.50;74.23
37634;BME280;32048;49.902;22.508;2022-09-13T05:55:03;98477.97;;;19.74;74.01
37634;BME280;32048;49.902;22.508;2022-09-13T05:57:30;98475.03;;;20.14;70.70
37634;BME280;32048;49.902;22.508;2022-09-13T05:59:56;98468.13;;;20.40;66.82
37634;BME280;32048;49.902;22.508;2022-09-13T06:02:23;98462.63;;;20.69;65.60
37634;BME280;32048;49.902;22.508;2022-09-13T06:04:50;98464.59;;;21.12;62.07
37634;BME280;32048;49.902;22.508;2022-09-13T06:07:17;98462.25;;;21.53;62.05
37634;BME280;32048;49.902;22.508;2022-09-13T06:09:44;98456.06;;;22.13;58.29
37634;BME280;32048;49.902;22.508;2022-09-13T06:12:11;98459.66;;;22.73;54.41
37634;BME280;32048;49.902;22.508;2022-09-13T06:14:38;98450.34;;;23.26;53.75
37634;BME280;32048;49.902;22.508;2022-09-13T06:17:05;98462.63;;;23.86;48.31
37634;BME280;32048;49.902;22.508;2022-09-13T06:19:31;98456.13;;;24.20;48.04
37634;BME280;32048;49.902;22.508;2022-09-13T06:21:58;98461.22;;;24.06;47.61
37634;BME280;32048;49.902;22.508;2022-09-13T06:24:25;98458.44;;;23.75;47.45
37634;BME280;32048;49.902;22.508;2022-09-13T06:26:52;98459.13;;;23.12;46.13
37634;BME280;32048;49.902;22.508;2022-09-13T06:29:19;98465.91;;;22.31;49.51
37634;BME280;32048;49.902;22.508;2022-09-13T06:31:46;98469.63;;;21.51;52.10
37634;BME280;32048;49.902;22.508;2022-09-13T06:34:13;98453.59;;;20.88;58.00
37634;BME280;32048;49.902;22.508;2022-09-13T06:36:42;98469.31;;;21.01;57.61
37634;BME280;32048;49.902;22.508;2022-09-13T06:39:09;98464.50;;;21.04;55.70
37634;BME280;32048;49.902;22.508;2022-09-13T06:41:36;98466.16;;;20.87;55.88
37634;BME280;32048;49.902;22.508;2022-09-13T06:44:03;98469.16;;;20.84;55.84
37634;BME280;32048;49.902;22.508;2022-09-13T06:46:33;98460.66;;;20.89;55.86
37634;BME280;32048;49.902;22.508;2022-09-13T06:49:04;98474.19;;;20.42;55.96
37634;BME280;32048;49.902;22.508;2022-09-13T06:51:32;98471.56;;;19.94;58.46
37634;BME280;32048;49.902;22.508;2022-09-13T06:53:59;98469.63;;;19.67;62.09
37634;BME280;32048;49.902;22.508;2022-09-13T06:56:31;98469.75;;;19.85;64.69
37634;BME280;32048;49.902;22.508;2022-09-13T06:59:00;98462.94;;;20.38;62.69
37634;BME280;32048;49.902;22.508;2022-09-13T07:01:30;98469.41;;;21.45;57.28
37634;BME280;32048;49.902;22.508;2022-09-13T07:04:09;98464.75;;;22.76;48.62
37634;BME280;32048;49.902;22.508;2022-09-13T07:06:38;98463.81;;;23.51;48.51
37634;BME280;32048;49.902;22.508;2022-09-13T07:09:08;98466.88;;;24.28;45.45
37634;BME280;32048;49.902;22.508;2022-09-13T07:11:38;98466.56;;;24.23;43.46
37634;BME280;32048;49.902;22.508;2022-09-13T07:14:07;98466.19;;;23.45;45.90
37634;BME280;32048;49.902;22.508;2022-09-13T07:16:36;98475.72;;;22.99;47.64
37634;BME280;32048;49.902;22.508;2022-09-13T07:19:06;98477.09;;;22.52;48.64
37634;BME280;32048;49.902;22.508;2022-09-13T07:21:37;98469.88;;;22.45;48.59
37634;BME280;32048;49.902;22.508;2022-09-13T07:24:04;98471.81;;;22.77;48.22
37634;BME280;32048;49.902;22.508;2022-09-13T07:26:31;98468.13;;;22.86;47.48
37634;BME280;32048;49.902;22.508;2022-09-13T07:29:00;98470.78;;;22.78;47.89
37634;BME280;32048;49.902;22.508;2022-09-13T07:31:38;98470.50;;;22.89;49.74
37634;BME280;32048;49.902;22.508;2022-09-13T07:34:10;98467.50;;;23.74;47.04
37634;BME280;32048;49.902;22.508;2022-09-13T07:36:37;98461.00;;;24.24;44.52
37634;BME280;32048;49.902;22.508;2022-09-13T07:39:04;98469.03;;;23.85;45.35
37634;BME280;32048;49.902;22.508;2022-09-13T07:41:33;98466.84;;;23.15;46.01
37634;BME280;32048;49.902;22.508;2022-09-13T07:44:01;98465.31;;;22.45;48.20
37634;BME280;32048;49.902;22.508;2022-09-13T07:46:30;98458.50;;;22.25;50.81
37634;BME280;32048;49.902;22.508;2022-09-13T07:48:59;98457.28;;;22.61;50.07
37634;BME280;32048;49.902;22.508;2022-09-13T07:51:31;98460.28;;;23.50;46.45
37634;BME280;32048;49.902;22.508;2022-09-13T07:54:00;98473.75;;;23.99;45.31
37634;BME280;32048;49.902;22.508;2022-09-13T07:56:30;98464.47;;;23.69;45.29
37634;BME280;32048;49.902;22.508;2022-09-13T07:58:59;98475.69;;;22.91;46.35
37634;BME280;32048;49.902;22.508;2022-09-13T08:04:09;98471.56;;;23.29;46.20
37634;BME280;32048;49.902;22.508;2022-09-13T08:06:40;98474.41;;;22.52;48.08
37634;BME280;32048;49.902;22.508;2022-09-13T08:09:09;98473.25;;;21.86;51.09
37634;BME280;32048;49.902;22.508;2022-09-13T08:11:37;98468.56;;;21.44;52.16
37634;BME280;32048;49.902;22.508;2022-09-13T08:14:06;98475.69;;;21.35;52.87
37634;BME280;32048;49.902;22.508;2022-09-13T08:16:34;98461.59;;;21.77;50.54
37634;BME280;32048;49.902;22.508;2022-09-13T08:19:03;98461.41;;;22.39;48.96
37634;BME280;32048;49.902;22.508;2022-09-13T08:21:35;98464.69;;;23.35;48.98
37634;BME280;32048;49.902;22.508;2022-09-13T08:24:04;98466.84;;;24.36;42.86
37634;BME280;32048;49.902;22.508;2022-09-13T08:26:33;98459.94;;;25.04;43.12
37634;BME280;32048;49.902;22.508;2022-09-13T08:29:03;98464.66;;;25.34;40.20
37634;BME280;32048;49.902;22.508;2022-09-13T08:31:30;98450.13;;;25.35;40.83
37634;BME280;32048;49.902;22.508;2022-09-13T08:33:58;98457.88;;;25.06;41.74
37634;BME280;32048;49.902;22.508;2022-09-13T08:36:26;98461.53;;;24.59;41.57
37634;BME280;32048;49.902;22.508;2022-09-13T08:38:56;98454.56;;;24.73;39.61
37634;BME280;32048;49.902;22.508;2022-09-13T08:49:32;98454.66;;;24.01;41.75
37634;BME280;32048;49.902;22.508;2022-09-13T08:52:27;98455.94;;;23.41;41.25
37634;BME280;32048;49.902;22.508;2022-09-13T08:54:57;98462.72;;;22.70;42.18
37634;BME280;32048;49.902;22.508;2022-09-13T08:57:30;98456.84;;;21.97;42.15
37634;BME280;32048;49.902;22.508;2022-09-13T09:00:19;98457.97;;;21.43;43.33
37634;BME280;32048;49.902;22.508;2022-09-13T09:06:00;98447.53;;;21.22;44.67
37634;BME280;32048;49.902;22.508;2022-09-13T09:09:12;98446.63;;;22.09;48.25
37634;BME280;32048;49.902;22.508;2022-09-13T09:17:11;98445.31;;;23.39;41.76
37634;BME280;32048;49.902;22.508;2022-09-13T09:19:52;98447.59;;;22.85;43.00
37634;BME280;32048;49.902;22.508;2022-09-13T09:22:22;98448.53;;;22.51;41.81
37634;BME280;32048;49.902;22.508;2022-09-13T09:24:53;98451.97;;;22.27;43.59
37634;BME280;32048;49.902;22.508;2022-09-13T09:27:21;98448.03;;;22.56;44.96
37634;BME280;32048;49.902;22.508;2022-09-13T09:29:50;98446.81;;;23.42;42.01
37634;BME280;32048;49.902;22.508;2022-09-13T09:40:48;98433.09;;;22.70;40.07
37634;BME280;32048;49.902;22.508;2022-09-13T09:43:26;98434.91;;;22.61;43.93
37634;BME280;32048;49.902;22.508;2022-09-13T09:45:55;98425.25;;;23.50;42.24
37634;BME280;32048;49.902;22.508;2022-09-13T09:48:27;98422.81;;;24.75;37.59
37634;BME280;32048;49.902;22.508;2022-09-13T09:50:57;98413.13;;;26.03;35.53
37634;BME280;32048;49.902;22.508;2022-09-13T09:53:32;98409.47;;;27.20;32.22
37634;BME280;32048;49.902;22.508;2022-09-13T09:58:49;98406.16;;;29.12;30.26
37634;BME280;32048;49.902;22.508;2022-09-13T10:01:21;98394.69;;;29.43;29.23
37634;BME280;32048;49.902;22.508;2022-09-13T10:06:42;98399.19;;;30.16;27.21
37634;BME280;32048;49.902;22.508;2022-09-13T10:11:51;98390.72;;;30.44;26.06
37634;BME280;32048;49.902;22.508;2022-09-13T10:22:32;98388.88;;;30.76;26.47
37634;BME280;32048;49.902;22.508;2022-09-13T10:25:22;98384.28;;;30.25;27.48
37634;BME280;32048;49.902;22.508;2022-09-13T10:27:52;98382.97;;;30.86;26.99
37634;BME280;32048;49.902;22.508;2022-09-13T10:30:34;98377.81;;;31.03;26.67
37634;BME280;32048;49.902;22.508;2022-09-13T10:33:03;98380.19;;;30.93;25.50
37634;BME280;32048;49.902;22.508;2022-09-13T10:35:31;98367.97;;;31.02;25.49
37634;BME280;32048;49.902;22.508;2022-09-13T10:37:59;98372.16;;;31.55;25.29
37634;BME280;32048;49.902;22.508;2022-09-13T10:40:30;98366.03;;;32.03;25.21
37634;BME280;32048;49.902;22.508;2022-09-13T10:43:01;98364.81;;;32.96;25.56
37634;BME280;32048;49.902;22.508;2022-09-13T10:45:30;98367.88;;;33.30;23.19
37634;BME280;32048;49.902;22.508;2022-09-13T10:48:04;98370.81;;;32.86;23.62
37634;BME280;32048;49.902;22.508;2022-09-13T10:50:36;98361.72;;;30.95;24.93
37634;BME280;32048;49.902;22.508;2022-09-13T10:53:31;98352.44;;;30.32;27.30
37634;BME280;32048;49.902;22.508;2022-09-13T10:55:54;98360.66;;;30.05;26.32
37634;BME280;32048;49.902;22.508;2022-09-13T10:58:21;98357.19;;;30.43;25.71
37634;BME280;32048;49.902;22.508;2022-09-13T11:36:11;98329.59;;;28.81;26.72
37634;BME280;32048;49.902;22.508;2022-09-13T11:39:04;98336.44;;;28.09;24.97
37634;BME280;32048;49.902;22.508;2022-09-13T11:52:47;98330.66;;;24.24;32.82
37634;BME280;32048;49.902;22.508;2022-09-13T11:55:31;98326.25;;;25.00;32.64
37634;BME280;32048;49.902;22.508;2022-09-13T11:58:11;98319.84;;;25.16;31.52
37634;BME280;32048;49.902;22.508;2022-09-13T12:00:44;98315.91;;;25.42;32.10
37634;BME280;32048;49.902;22.508;2022-09-13T12:06:10;98320.59;;;25.10;32.05
37634;BME280;32048;49.902;22.508;2022-09-13T12:08:51;98309.22;;;25.15;33.00
37634;BME280;32048;49.902;22.508;2022-09-13T12:11:44;98307.13;;;25.02;34.07
37634;BME280;32048;49.902;22.508;2022-09-13T12:14:17;98297.63;;;25.29;32.65
37634;BME280;32048;49.902;22.508;2022-09-13T12:16:49;98286.38;;;25.02;31.60
37634;BME280;32048;49.902;22.508;2022-09-13T12:19:23;98301.56;;;24.11;34.29
37634;BME280;32048;49.902;22.508;2022-09-13T12:21:55;98290.94;;;24.10;35.00
37634;BME280;32048;49.902;22.508;2022-09-13T12:27:15;98285.06;;;24.60;33.25
37634;BME280;32048;49.902;22.508;2022-09-13T12:29:51;98280.91;;;24.73;34.26
37634;BME280;32048;49.902;22.508;2022-09-13T12:32:19;98284.72;;;24.32;34.90
37634;BME280;32048;49.902;22.508;2022-09-13T12:54:13;98269.41;;;24.01;35.68
37634;BME280;32048;49.902;22.508;2022-09-13T13:03:03;98261.66;;;22.62;38.51
37634;BME280;32048;49.902;22.508;2022-09-13T13:05:40;98259.31;;;22.51;38.53
37634;BME280;32048;49.902;22.508;2022-09-13T13:11:04;98258.75;;;22.14;40.20
37634;BME280;32048;49.902;22.508;2022-09-13T13:13:42;98252.88;;;22.11;40.00
37634;BME280;32048;49.902;22.508;2022-09-13T13:19:04;98251.44;;;21.82;41.16
37634;BME280;32048;49.902;22.508;2022-09-13T13:21:39;98254.25;;;21.72;40.56
37634;BME280;32048;49.902;22.508;2022-09-13T13:26:43;98250.97;;;21.18;40.98
37634;BME280;32048;49.902;22.508;2022-09-13T13:29:18;98246.34;;;21.02;40.65
37634;BME280;32048;49.902;22.508;2022-09-13T13:34:49;98242.56;;;20.87;41.70
37634;BME280;32048;49.902;22.508;2022-09-13T13:39:47;98238.16;;;21.04;42.22
37634;BME280;32048;49.902;22.508;2022-09-13T13:52:35;98228.84;;;20.90;42.62
37634;BME280;32048;49.902;22.508;2022-09-13T13:56:03;98223.31;;;20.47;43.15
37634;BME280;32048;49.902;22.508;2022-09-13T14:00:47;98229.44;;;20.04;44.89
37634;BME280;32048;49.902;22.508;2022-09-13T14:03:25;98218.03;;;20.02;45.48
37634;BME280;32048;49.902;22.508;2022-09-13T14:06:02;98226.03;;;19.93;46.07
37634;BME280;32048;49.902;22.508;2022-09-13T14:15:06;98214.59;;;19.91;47.96
37634;BME280;32048;49.902;22.508;2022-09-13T14:20:26;98211.25;;;20.07;47.07
37634;BME280;32048;49.902;22.508;2022-09-13T14:23:11;98195.75;;;20.19;47.75
37634;BME280;32048;49.902;22.508;2022-09-13T14:25:38;98191.78;;;20.23;46.87
37634;BME280;32048;49.902;22.508;2022-09-13T14:28:06;98192.50;;;20.33;48.00
37634;BME280;32048;49.902;22.508;2022-09-13T14:30:37;98186.97;;;20.27;45.74
37634;BME280;32048;49.902;22.508;2022-09-13T14:33:04;98190.72;;;20.16;46.30
37634;BME280;32048;49.902;22.508;2022-09-13T14:35:39;98181.88;;;20.24;47.22
37634;BME280;32048;49.902;22.508;2022-09-13T14:38:33;98178.72;;;20.28;47.17
37634;BME280;32048;49.902;22.508;2022-09-13T14:42:12;98181.06;;;20.05;46.47
37634;BME280;32048;49.902;22.508;2022-09-13T14:44:44;98186.88;;;20.01;46.99
37634;BME280;32048;49.902;22.508;2022-09-13T14:47:20;98176.69;;;20.04;47.69
37634;BME280;32048;49.902;22.508;2022-09-13T14:50:07;98177.22;;;20.08;47.92
37634;BME280;32048;49.902;22.508;2022-09-13T14:52:47;98174.78;;;20.14;47.73
37634;BME280;32048;49.902;22.508;2022-09-13T14:55:18;98177.22;;;20.26;47.68
37634;BME280;32048;49.902;22.508;2022-09-13T14:57:50;98176.22;;;20.27;46.79
37634;BME280;32048;49.902;22.508;2022-09-13T15:00:20;98183.66;;;19.97;47.61
37634;BME280;32048;49.902;22.508;2022-09-13T15:02:51;98188.19;;;19.79;48.68
37634;BME280;32048;49.902;22.508;2022-09-13T15:05:21;98191.50;;;19.63;48.44
37634;BME280;32048;49.902;22.508;2022-09-13T15:07:49;98188.81;;;19.63;49.07
37634;BME280;32048;49.902;22.508;2022-09-13T15:17:52;98183.28;;;19.46;51.15
37634;BME280;32048;49.902;22.508;2022-09-13T15:20:21;98184.47;;;19.34;51.19
37634;BME280;32048;49.902;22.508;2022-09-13T15:22:49;98176.66;;;19.23;52.53
37634;BME280;32048;49.902;22.508;2022-09-13T15:25:23;98175.63;;;19.06;51.92
37634;BME280;32048;49.902;22.508;2022-09-13T15:27:53;98166.19;;;19.02;53.23
37634;BME280;32048;49.902;22.508;2022-09-13T15:35:38;98170.78;;;18.82;55.03
37634;BME280;32048;49.902;22.508;2022-09-13T15:43:36;98179.56;;;18.45;57.32
37634;BME280;32048;49.902;22.508;2022-09-13T15:46:04;98177.91;;;18.34;57.98
37634;BME280;32048;49.902;22.508;2022-09-13T15:48:33;98182.09;;;18.27;58.81
37634;BME280;32048;49.902;22.508;2022-09-13T15:51:12;98184.22;;;18.14;59.26
37634;BME280;32048;49.902;22.508;2022-09-13T15:53:41;98179.19;;;18.11;60.30
37634;BME280;32048;49.902;22.508;2022-09-13T15:56:13;98181.03;;;18.00;61.78
37634;BME280;32048;49.902;22.508;2022-09-13T15:58:41;98166.25;;;17.86;62.87
37634;BME280;32048;49.902;22.508;2022-09-13T16:01:11;98174.94;;;17.79;64.42
37634;BME280;32048;49.902;22.508;2022-09-13T16:03:38;98172.25;;;17.69;65.11
37634;BME280;32048;49.902;22.508;2022-09-13T16:06:06;98168.44;;;17.62;65.06
37634;BME280;32048;49.902;22.508;2022-09-13T16:08:36;98167.31;;;17.55;66.19
37634;BME280;32048;49.902;22.508;2022-09-13T16:11:03;98164.22;;;17.50;67.22
37634;BME280;32048;49.902;22.508;2022-09-13T16:13:31;98166.59;;;17.43;68.51
37634;BME280;32048;49.902;22.508;2022-09-13T16:15:58;98166.28;;;17.36;69.96
37634;BME280;32048;49.902;22.508;2022-09-13T16:18:26;98170.34;;;17.31;70.23
37634;BME280;32048;49.902;22.508;2022-09-13T16:20:53;98167.38;;;17.24;70.64
37634;BME280;32048;49.902;22.508;2022-09-13T16:23:19;98158.53;;;17.14;72.53
37634;BME280;32048;49.902;22.508;2022-09-13T16:25:55;98156.91;;;17.01;73.12
37634;BME280;32048;49.902;22.508;2022-09-13T16:28:23;98158.00;;;16.89;74.22
37634;BME280;32048;49.902;22.508;2022-09-13T16:30:51;98154.69;;;16.76;75.78
37634;BME280;32048;49.902;22.508;2022-09-13T16:33:18;98145.22;;;16.62;78.13
37634;BME280;32048;49.902;22.508;2022-09-13T16:35:45;98148.09;;;16.49;79.70
37634;BME280;32048;49.902;22.508;2022-09-13T16:38:13;98148.91;;;16.40;81.32
37634;BME280;32048;49.902;22.508;2022-09-13T16:40:41;98147.72;;;16.33;82.28
37634;BME280;32048;49.902;22.508;2022-09-13T16:43:09;98152.03;;;16.24;83.75
37634;BME280;32048;49.902;22.508;2022-09-13T16:45:40;98154.75;;;16.13;86.01
37634;BME280;32048;49.902;22.508;2022-09-13T16:48:07;98157.34;;;16.03;87.18
37634;BME280;32048;49.902;22.508;2022-09-13T16:50:38;98153.66;;;15.94;87.66
37634;BME280;32048;49.902;22.508;2022-09-13T16:53:06;98152.59;;;15.86;88.34
37634;BME280;32048;49.902;22.508;2022-09-13T16:55:34;98149.31;;;15.82;88.56
37634;BME280;32048;49.902;22.508;2022-09-13T16:58:01;98151.06;;;15.72;90.00
37634;BME280;32048;49.902;22.508;2022-09-13T17:00:28;98155.53;;;15.60;91.59